Time;durP1;ratioP1;P1;durP2;ratioP2;P2;SDS_P1;SDS_P2;PMS_P1;PMS_P2;Temp;Humidity;BMP_temperature;BMP_pressure;BME280_temperature;BME280_humidity;BME280_pressure;Samples;Min_cycle;Max_cycle;Signal;HPM_P1;HPM_P2
2023/06/28 00:00:28;;;;;;;8.02;5.82;;;;;;;23.95;80.41;99423.69;5016299;28;20036;-62
2023/06/28 00:02:55;;;;;;;6.20;5.03;;;;;;;23.98;80.71;99417.75;5015910;28;20445;-62
2023/06/28 00:05:21;;;;;;;6.97;5.10;;;;;;;24.11;80.15;99408.41;5015526;28;20042;-63
2023/06/28 00:07:46;;;;;;;6.95;4.72;;;;;;;24.13;80.07;99408.97;5017268;28;20105;-62
2023/06/28 00:10:12;;;;;;;8.80;5.68;;;;;;;23.46;83.59;99417.47;5015964;28;20053;-62
2023/06/28 00:12:37;;;;;;;8.20;5.18;;;;;;;22.93;88.26;99419.81;5014521;28;20045;-63
2023/06/28 00:15:03;;;;;;;7.10;5.57;;;;;;;23.12;87.04;99408.72;5014988;28;20068;-63
2023/06/28 00:17:29;;;;;;;7.35;5.40;;;;;;;23.23;86.91;99407.75;5015612;28;20389;-62
2023/06/28 00:19:58;;;;;;;7.00;5.05;;;;;;;23.37;85.33;99411.69;5015041;28;20037;-63
2023/06/28 00:22:31;;;;;;;6.00;5.18;;;;;;;23.49;84.26;99412.38;5016265;28;20046;-62
2023/06/28 00:24:57;;;;;;;7.30;5.45;;;;;;;23.64;82.88;99411.75;5017027;28;20037;-63
2023/06/28 00:27:23;;;;;;;7.32;4.78;;;;;;;23.77;81.93;99416.75;5016029;28;20235;-62
2023/06/28 00:29:48;;;;;;;8.15;5.35;;;;;;;23.93;80.42;99414.16;5014964;28;20037;-62
2023/06/28 00:32:14;;;;;;;6.70;5.22;;;;;;;23.95;80.61;99401.25;5015569;28;20061;-62
2023/06/28 00:34:39;;;;;;;7.07;5.95;;;;;;;23.86;80.83;99393.56;5014636;28;20052;-63
2023/06/28 00:37:05;;;;;;;6.03;5.15;;;;;;;23.84;81.35;99397.59;5015546;28;20073;-63
2023/06/28 00:39:31;;;;;;;7.45;5.38;;;;;;;23.89;81.49;99395.75;5015694;28;20040;-63
2023/06/28 00:41:56;;;;;;;7.18;5.47;;;;;;;23.91;81.20;99394.69;5015212;28;20034;-63
2023/06/28 00:44:22;;;;;;;6.95;5.15;;;;;;;23.96;80.87;99395.56;5016057;28;20030;-62
2023/06/28 00:46:48;;;;;;;4.95;4.45;;;;;;;24.02;80.55;99389.13;5016145;28;20038;-62
2023/06/28 00:49:14;;;;;;;7.32;5.07;;;;;;;24.08;79.41;99385.38;5015854;28;20057;-63
2023/06/28 00:51:40;;;;;;;6.72;5.30;;;;;;;24.05;78.85;99387.78;5015336;28;20042;-63
2023/06/28 00:54:06;;;;;;;5.68;4.82;;;;;;;24.06;79.49;99384.84;5015961;28;20250;-63
2023/06/28 00:56:32;;;;;;;5.72;4.85;;;;;;;24.05;79.75;99377.78;5015390;28;20053;-62
2023/06/28 00:58:57;;;;;;;6.43;5.18;;;;;;;23.80;80.44;99351.34;5015187;28;20041;-62
2023/06/28 01:01:23;;;;;;;6.78;5.28;;;;;;;24.04;79.45;99378.88;5015987;28;20395;-63
2023/06/28 01:03:50;;;;;;;7.55;5.32;;;;;;;24.07;77.19;99381.06;5016487;28;20045;-63
2023/06/28 01:06:17;;;;;;;7.90;5.30;;;;;;;24.01;77.81;99387.50;5016882;28;20041;-62
2023/06/28 01:08:45;;;;;;;6.57;5.20;;;;;;;23.91;79.27;99389.28;5015741;28;20061;-63
2023/06/28 01:11:11;;;;;;;6.03;5.05;;;;;;;23.93;79.36;99385.28;5017301;28;20266;-63
2023/06/28 01:13:37;;;;;;;6.07;5.03;;;;;;;23.94;79.59;99391.50;5016352;28;20216;-63
2023/06/28 01:16:04;;;;;;;5.50;4.80;;;;;;;23.87;80.09;99397.09;5015288;28;20261;-64
2023/06/28 01:18:33;;;;;;;7.18;5.40;;;;;;;23.85;80.15;99391.94;5014717;28;20060;-63
2023/06/28 01:21:03;;;;;;;6.95;5.35;;;;;;;23.89;79.59;99393.06;5015297;28;20140;-63
2023/06/28 01:23:29;;;;;;;6.95;4.93;;;;;;;23.94;78.57;99395.00;5015467;28;20178;-62
2023/06/28 01:25:55;;;;;;;8.18;5.32;;;;;;;23.96;77.71;99400.97;5015911;28;20068;-63
2023/06/28 01:28:21;;;;;;;9.02;6.22;;;;;;;23.94;77.98;99403.13;5018763;28;20037;-63
2023/06/28 01:30:48;;;;;;;7.57;5.85;;;;;;;23.93;78.41;99403.34;5018489;28;20411;-63
2023/06/28 01:33:17;;;;;;;6.18;5.50;;;;;;;23.87;79.35;99407.91;5018913;28;20049;-62
2023/06/28 01:35:42;;;;;;;6.30;4.90;;;;;;;23.83;79.05;99412.19;5018911;28;20056;-63
2023/06/28 01:38:10;;;;;;;6.93;5.60;;;;;;;23.79;79.04;99403.78;5018058;28;20034;-62
2023/06/28 01:40:37;;;;;;;7.55;6.00;;;;;;;23.68;78.93;99417.44;5019179;28;20038;-63
2023/06/28 01:43:06;;;;;;;7.82;5.63;;;;;;;23.68;79.37;99417.44;5018278;28;20029;-63
2023/06/28 01:45:33;;;;;;;7.65;5.88;;;;;;;23.66;79.57;99412.31;5017861;28;20036;-63
2023/06/28 01:47:58;;;;;;;7.60;5.47;;;;;;;23.62;80.19;99410.38;5018284;28;20026;-62
2023/06/28 01:50:24;;;;;;;9.25;5.68;;;;;;;23.53;80.92;99412.69;5017407;28;20100;-62
2023/06/28 01:52:50;;;;;;;7.78;5.47;;;;;;;23.55;79.81;99410.56;5018390;28;20053;-62
2023/06/28 01:55:15;;;;;;;8.48;5.60;;;;;;;23.58;78.94;99407.34;5018509;28;20037;-63
2023/06/28 01:57:41;;;;;;;6.10;5.13;;;;;;;23.65;78.38;99412.56;5018733;28;20041;-62
2023/06/28 02:00:08;;;;;;;8.10;5.43;;;;;;;23.61;78.30;99414.97;5018178;28;20034;-62
2023/06/28 02:02:35;;;;;;;7.53;5.25;;;;;;;23.59;78.18;99409.00;5017252;28;20102;-63
2023/06/28 02:05:00;;;;;;;8.07;5.55;;;;;;;23.64;77.73;99419.84;5018306;28;20112;-63
2023/06/28 02:07:26;;;;;;;6.22;5.07;;;;;;;23.61;77.90;99408.72;5017653;28;20523;-62
2023/06/28 02:09:51;;;;;;;8.40;5.40;;;;;;;23.58;78.06;99407.34;5017807;28;20048;-62
2023/06/28 02:12:17;;;;;;;8.60;5.85;;;;;;;23.56;77.77;99409.50;5017963;28;20032;-63
2023/06/28 02:14:42;;;;;;;8.00;5.40;;;;;;;23.49;76.75;99406.97;5017482;28;20045;-63
2023/06/28 02:17:13;;;;;;;6.90;5.68;;;;;;;23.42;76.98;99402.84;5017692;28;20091;-62
2023/06/28 02:19:42;;;;;;;6.80;5.40;;;;;;;23.38;77.89;99401.72;5016314;28;20393;-62
2023/06/28 02:22:08;;;;;;;7.70;4.80;;;;;;;23.32;78.82;99400.03;5018159;28;20041;-63
2023/06/28 02:24:34;;;;;;;8.48;6.65;;;;;;;23.27;80.31;99398.09;5017516;28;20029;-63
2023/06/28 02:27:00;;;;;;;7.43;5.60;;;;;;;23.25;80.03;99397.53;5018214;28;20025;-63
2023/06/28 02:29:25;;;;;;;7.28;5.05;;;;;;;23.28;80.07;99397.00;5018231;28;20045;-63
2023/06/28 02:31:50;;;;;;;6.57;5.78;;;;;;;23.28;80.06;99405.13;5018643;28;20045;-63
2023/06/28 02:34:16;;;;;;;9.63;5.68;;;;;;;23.14;79.89;99407.38;5016777;28;20037;-64
2023/06/28 02:36:41;;;;;;;6.30;5.13;;;;;;;23.03;80.40;99405.63;5016871;28;20049;-62
2023/06/28 02:39:07;;;;;;;6.63;5.50;;;;;;;22.96;80.73;99413.09;5016560;28;21335;-62
2023/06/28 02:41:32;;;;;;;6.07;5.38;;;;;;;22.93;81.27;99410.91;5017447;28;20242;-62
2023/06/28 02:43:58;;;;;;;7.20;5.38;;;;;;;23.01;80.98;99407.78;5016955;28;20042;-63
2023/06/28 02:46:23;;;;;;;6.57;4.95;;;;;;;23.02;79.91;99412.09;5016830;28;20036;-62
2023/06/28 02:48:48;;;;;;;6.95;5.22;;;;;;;23.10;80.12;99408.16;5016451;28;20049;-63
2023/06/28 02:51:14;;;;;;;6.57;5.38;;;;;;;23.12;80.60;99414.94;5017036;28;20064;-62
2023/06/28 02:53:39;;;;;;;6.75;5.72;;;;;;;23.17;80.76;99411.47;5017220;28;20048;-63
2023/06/28 02:56:05;;;;;;;11.38;6.03;;;;;;;23.14;80.68;99415.50;5016909;28;20044;-63
2023/06/28 02:58:30;;;;;;;13.38;6.50;;;;;;;23.02;81.59;99414.81;5016753;28;20036;-63
2023/06/28 03:00:57;;;;;;;10.30;6.28;;;;;;;23.08;81.48;99411.09;5018126;28;20034;-62
2023/06/28 03:03:23;;;;;;;9.35;6.05;;;;;;;23.13;81.33;99411.16;5017296;28;20030;-63
2023/06/28 03:05:48;;;;;;;9.15;5.95;;;;;;;23.06;81.29;99415.13;5017464;28;20038;-63
2023/06/28 03:08:14;;;;;;;8.63;6.07;;;;;;;23.10;81.57;99410.84;5016866;28;20071;-62
2023/06/28 03:10:40;;;;;;;6.80;5.72;;;;;;;23.17;80.92;99415.00;5017518;28;20318;-63
2023/06/28 03:13:05;;;;;;;7.22;5.28;;;;;;;23.24;80.00;99412.09;5017195;28;20057;-63
2023/06/28 03:15:31;;;;;;;9.30;5.47;;;;;;;23.24;78.15;99412.09;5016402;28;20629;-62
2023/06/28 03:17:56;;;;;;;9.20;5.90;;;;;;;23.20;79.32;99425.28;5016931;28;20220;-63
2023/06/28 03:20:22;;;;;;;7.38;5.63;;;;;;;23.15;79.89;99421.72;5016452;28;20092;-63
2023/06/28 03:22:49;;;;;;;8.95;5.80;;;;;;;23.19;79.88;99414.75;5018484;28;20034;-63
2023/06/28 03:25:15;;;;;;;9.02;6.63;;;;;;;23.10;80.78;99435.97;5017578;28;20048;-62
2023/06/28 03:27:40;;;;;;;8.55;5.95;;;;;;;23.10;81.16;99427.88;5017987;28;20033;-63
2023/06/28 03:30:06;;;;;;;7.70;5.72;;;;;;;23.14;80.65;99439.81;5016990;28;20270;-62
2023/06/28 03:32:32;;;;;;;8.25;5.53;;;;;;;23.12;79.93;99431.13;5016708;28;20327;-62
2023/06/28 03:34:57;;;;;;;7.65;5.15;;;;;;;23.05;79.30;99433.22;5016370;28;20052;-62
2023/06/28 03:37:23;;;;;;;8.57;5.60;;;;;;;22.98;79.62;99446.06;5016880;28;20040;-63
2023/06/28 03:39:48;;;;;;;8.00;5.82;;;;;;;22.91;80.05;99442.75;5016810;28;20041;-62
2023/06/28 03:42:13;;;;;;;7.57;5.00;;;;;;;23.04;79.50;99439.66;5016541;28;20041;-63
2023/06/28 03:44:39;;;;;;;8.98;6.22;;;;;;;23.19;79.22;99428.25;5016018;28;20362;-63
2023/06/28 03:47:05;;;;;;;8.75;6.28;;;;;;;23.21;78.91;99426.91;5015916;28;20327;-63
2023/06/28 03:49:30;;;;;;;10.07;6.70;;;;;;;23.21;79.24;99431.50;5015164;28;20046;-63
2023/06/28 03:51:56;;;;;;;10.57;7.20;;;;;;;23.23;79.52;99426.66;5016689;28;20088;-62
2023/06/28 03:54:21;;;;;;;11.35;7.18;;;;;;;23.38;79.44;99434.13;5015988;28;20038;-63
2023/06/28 03:56:46;;;;;;;11.13;7.47;;;;;;;23.45;79.55;99432.88;5016251;28;20041;-62
2023/06/28 03:59:12;;;;;;;9.80;7.00;;;;;;;23.55;79.13;99438.41;5016191;28;20282;-63
2023/06/28 04:01:38;;;;;;;8.30;7.03;;;;;;;23.56;79.36;99442.75;5016235;28;20383;-63
2023/06/28 04:04:04;;;;;;;12.48;7.57;;;;;;;23.53;80.25;99439.72;5015572;28;20033;-63
2023/06/28 04:06:29;;;;;;;12.55;8.05;;;;;;;23.46;80.41;99437.19;5015359;28;20045;-62
2023/06/28 04:08:55;;;;;;;11.13;8.13;;;;;;;23.45;81.26;99446.38;5016274;28;20046;-62
2023/06/28 04:11:20;;;;;;;12.80;9.35;;;;;;;23.45;81.71;99440.16;5016225;28;20196;-62
2023/06/28 04:13:45;;;;;;;15.35;8.77;;;;;;;23.37;82.30;99441.41;5015133;28;20037;-63
2023/06/28 04:16:11;;;;;;;12.80;8.95;;;;;;;23.29;83.18;99439.16;5015816;28;20342;-62
2023/06/28 04:18:36;;;;;;;14.10;10.15;;;;;;;23.25;83.75;99438.03;5015759;28;20033;-63
2023/06/28 04:21:02;;;;;;;14.40;10.18;;;;;;;23.24;83.13;99433.72;5015496;28;20034;-63
2023/06/28 04:23:27;;;;;;;15.65;10.00;;;;;;;23.30;82.93;99435.41;5015423;28;20327;-63
2023/06/28 04:25:53;;;;;;;16.10;9.88;;;;;;;23.29;83.03;99438.34;5014648;28;20048;-63
2023/06/28 04:28:18;;;;;;;14.43;9.98;;;;;;;23.34;82.60;99430.31;5015084;28;20034;-63
2023/06/28 04:30:44;;;;;;;13.75;9.38;;;;;;;23.45;82.37;99434.75;5015154;28;20042;-64
2023/06/28 04:33:09;;;;;;;13.70;10.27;;;;;;;23.63;81.49;99431.72;5015151;28;20032;-62
2023/06/28 04:35:35;;;;;;;14.60;9.98;;;;;;;23.85;80.44;99445.19;5014156;28;20096;-63
2023/06/28 04:38:04;;;;;;;13.27;9.25;;;;;;;24.01;79.47;99440.78;5016289;28;20038;-63
2023/06/28 04:40:32;;;;;;;15.15;9.32;;;;;;;24.07;79.09;99443.28;5016563;28;20034;-63
2023/06/28 04:42:58;;;;;;;14.88;9.70;;;;;;;24.15;79.01;99450.09;5015361;28;20038;-64
2023/06/28 04:45:35;;;;;;;14.93;9.63;;;;;;;24.27;79.14;99445.34;5015192;28;20080;-63
2023/06/28 04:48:00;;;;;;;15.15;9.25;;;;;;;24.52;77.87;99458.25;5015569;28;20030;-64
2023/06/28 04:50:26;;;;;;;11.02;8.68;;;;;;;24.63;77.44;99456.44;5015544;28;20041;-64
2023/06/28 04:52:51;;;;;;;11.25;8.30;;;;;;;24.62;76.74;99454.81;5015747;28;20079;-64
2023/06/28 04:55:17;;;;;;;10.68;7.18;;;;;;;24.56;75.61;99455.84;5014773;28;20038;-63
2023/06/28 04:57:42;;;;;;;10.65;7.85;;;;;;;24.40;76.42;99458.44;5015834;28;20042;-64
2023/06/28 05:00:10;;;;;;;11.55;8.45;;;;;;;24.19;77.48;99462.84;5015116;28;20339;-64
2023/06/28 05:02:36;;;;;;;10.45;7.82;;;;;;;24.32;75.49;99460.81;5019726;28;20041;-63
2023/06/28 05:05:01;;;;;;;7.10;6.40;;;;;;;24.42;74.32;99453.59;5019386;28;20088;-64
2023/06/28 05:07:28;;;;;;;10.07;6.70;;;;;;;24.61;73.96;99455.88;5019973;28;20030;-64
2023/06/28 05:09:54;;;;;;;9.27;6.80;;;;;;;24.68;72.59;99459.16;5018454;28;20402;-64
2023/06/28 05:12:20;;;;;;;9.30;6.72;;;;;;;24.86;72.87;99469.56;5019483;28;20030;-64
2023/06/28 05:14:45;;;;;;;9.05;6.35;;;;;;;24.83;71.79;99464.69;5019223;28;20357;-65
2023/06/28 05:17:11;;;;;;;8.75;6.88;;;;;;;25.13;71.07;99469.50;5018825;28;20037;-64
2023/06/28 05:19:36;;;;;;;9.10;6.50;;;;;;;24.78;71.36;99465.47;5019524;28;20041;-64
2023/06/28 05:22:02;;;;;;;7.78;6.18;;;;;;;25.08;70.50;99458.66;5019521;28;20096;-64
2023/06/28 05:24:27;;;;;;;8.38;6.70;;;;;;;25.17;70.57;99461.66;5018568;28;20033;-63
2023/06/28 05:26:53;;;;;;;9.35;7.03;;;;;;;25.26;70.01;99470.91;5019415;28;20038;-64
2023/06/28 05:29:19;;;;;;;10.38;7.10;;;;;;;25.32;68.66;99459.00;5018762;28;20041;-64
2023/06/28 05:31:45;;;;;;;8.80;6.50;;;;;;;25.34;68.15;99468.50;5018902;28;20036;-64
2023/06/28 05:34:11;;;;;;;8.90;6.32;;;;;;;25.19;68.15;99470.34;5018414;28;20037;-63
2023/06/28 05:36:36;;;;;;;9.60;6.45;;;;;;;25.05;69.21;99470.00;5018829;28;20045;-63
2023/06/28 05:39:02;;;;;;;9.27;6.57;;;;;;;25.00;69.97;99459.16;5018361;28;20394;-64
2023/06/28 05:41:28;;;;;;;8.50;6.82;;;;;;;25.04;70.14;99462.97;5019139;28;20089;-64
2023/06/28 05:43:54;;;;;;;8.60;6.38;;;;;;;24.95;71.79;99459.06;5018269;28;20034;-64
2023/06/28 05:46:19;;;;;;;9.80;7.28;;;;;;;24.88;71.46;99459.28;5018653;28;20048;-64
2023/06/28 05:48:46;;;;;;;8.27;6.45;;;;;;;25.15;71.12;99453.81;5001092;28;20382;-63
2023/06/28 05:51:14;;;;;;;9.40;7.35;;;;;;;25.67;69.44;99450.22;5018909;28;20029;-64
2023/06/28 05:53:40;;;;;;;9.48;7.32;;;;;;;26.17;67.91;99456.81;5018303;28;20069;-64
2023/06/28 05:56:06;;;;;;;9.93;7.45;;;;;;;26.39;65.82;99449.22;5018583;28;20041;-64
2023/06/28 05:58:32;;;;;;;11.52;7.95;;;;;;;26.46;61.18;99449.75;5017806;28;20043;-63
2023/06/28 06:00:57;;;;;;;8.75;7.22;;;;;;;26.59;59.77;99442.97;5017536;28;20033;-64
2023/06/28 06:03:23;;;;;;;11.15;6.78;;;;;;;26.66;59.72;99449.72;5017418;28;20038;-63
2023/06/28 06:05:49;;;;;;;9.50;7.90;;;;;;;26.65;60.03;99445.38;5018089;28;20021;-64
2023/06/28 06:08:15;;;;;;;9.45;7.05;;;;;;;26.53;59.74;99439.44;5018199;28;20030;-64
2023/06/28 06:10:40;;;;;;;10.57;7.63;;;;;;;26.48;60.90;99439.44;5017705;28;20072;-64
2023/06/28 06:13:05;;;;;;;10.00;7.90;;;;;;;26.45;62.03;99437.28;5017816;28;20064;-64
2023/06/28 06:15:31;;;;;;;10.43;8.30;;;;;;;26.63;60.95;99425.84;5017990;28;20048;-63
2023/06/28 06:17:56;;;;;;;10.85;7.57;;;;;;;26.83;60.47;99418.72;5017738;28;20324;-64
2023/06/28 06:20:22;;;;;;;14.82;8.88;;;;;;;27.19;59.22;99419.47;5018523;28;20247;-64
2023/06/28 06:22:49;;;;;;;9.23;7.38;;;;;;;27.41;57.88;99424.53;5018304;28;20393;-64
2023/06/28 06:25:15;;;;;;;8.80;7.60;;;;;;;27.55;57.13;99426.34;5017732;28;20031;-65
2023/06/28 06:27:40;;;;;;;8.50;7.70;;;;;;;27.72;56.19;99433.34;5018206;28;20222;-64
2023/06/28 06:30:06;;;;;;;8.38;7.50;;;;;;;27.77;54.18;99427.88;5017095;28;20087;-64
2023/06/28 06:32:32;;;;;;;8.48;7.03;;;;;;;27.87;52.79;99435.97;5016656;28;20041;-64
2023/06/28 06:34:57;;;;;;;7.43;6.65;;;;;;;28.06;52.66;99427.94;5017528;28;20238;-65
2023/06/28 06:37:26;;;;;;;9.85;7.00;;;;;;;28.15;52.22;99431.69;5018972;28;20053;-64
2023/06/28 06:39:53;;;;;;;8.52;6.78;;;;;;;28.27;51.74;99438.41;5018175;28;20080;-63
2023/06/28 06:42:19;;;;;;;7.85;7.03;;;;;;;28.51;51.31;99438.47;5017678;28;20062;-63
2023/06/28 06:44:44;;;;;;;8.00;6.53;;;;;;;28.54;52.26;99435.16;5018236;28;20034;-65
2023/06/28 06:47:10;;;;;;;8.55;7.57;;;;;;;28.65;50.72;99429.63;5018491;28;20052;-64
2023/06/28 06:49:35;;;;;;;9.30;7.05;;;;;;;28.92;49.84;99433.44;5016574;28;20057;-64
2023/06/28 06:52:01;;;;;;;8.90;7.68;;;;;;;28.78;49.30;99423.47;5017813;28;20046;-64
2023/06/28 06:54:29;;;;;;;9.90;7.65;;;;;;;28.97;49.26;99421.66;5016351;28;20034;-64
2023/06/28 06:57:02;;;;;;;7.78;6.68;;;;;;;29.14;49.16;99422.03;5017567;28;20230;-64
2023/06/28 06:59:27;;;;;;;8.18;7.25;;;;;;;29.49;48.69;99409.84;5013535;28;20034;-65
2023/06/28 07:01:53;;;;;;;8.50;7.63;;;;;;;29.51;48.46;99407.63;5016342;28;20048;-64
2023/06/28 07:04:21;;;;;;;8.30;7.15;;;;;;;29.79;46.72;99405.03;5015989;28;20418;-63
2023/06/28 07:06:47;;;;;;;10.02;7.10;;;;;;;29.86;46.50;99406.28;5017088;28;20301;-64
2023/06/28 07:09:14;;;;;;;9.88;7.15;;;;;;;30.10;46.30;99398.00;5016796;28;20311;-64
2023/06/28 07:11:40;;;;;;;9.20;8.20;;;;;;;30.14;46.16;99392.75;5017428;28;20034;-64
2023/06/28 07:14:05;;;;;;;8.05;7.22;;;;;;;30.39;45.57;99394.25;5017139;28;20025;-65
2023/06/28 07:16:30;;;;;;;7.82;7.05;;;;;;;30.41;44.57;99389.31;5017290;28;20045;-64
2023/06/28 07:18:56;;;;;;;7.85;7.03;;;;;;;30.35;44.94;99388.59;5017403;28;20034;-64
2023/06/28 07:21:22;;;;;;;6.93;6.32;;;;;;;30.49;44.06;99386.69;5016417;28;20366;-64
2023/06/28 07:23:47;;;;;;;8.50;7.00;;;;;;;30.55;44.10;99389.31;5016792;28;20323;-64
2023/06/28 07:26:15;;;;;;;9.27;7.75;;;;;;;30.85;45.13;99388.75;5016356;28;20034;-64
2023/06/28 07:28:41;;;;;;;8.68;7.30;;;;;;;30.91;43.96;99387.53;5016535;28;20041;-64
2023/06/28 07:31:06;;;;;;;8.50;7.70;;;;;;;31.03;43.20;99385.09;5017629;28;20069;-63
2023/06/28 07:33:32;;;;;;;9.40;7.85;;;;;;;31.10;43.96;99382.75;5015737;28;20038;-64
2023/06/28 07:35:58;;;;;;;8.50;7.50;;;;;;;31.14;42.94;99380.22;5016148;28;20689;-63
2023/06/28 07:38:23;;;;;;;10.80;7.93;;;;;;;31.13;44.43;99386.81;5015466;28;20077;-63
2023/06/28 07:40:49;;;;;;;8.85;7.18;;;;;;;31.23;44.57;99380.38;5016068;28;20030;-64
2023/06/28 07:43:15;;;;;;;9.73;8.18;;;;;;;31.17;44.11;99387.03;5016174;28;20438;-64
2023/06/28 07:45:41;;;;;;;8.77;7.85;;;;;;;31.29;42.87;99385.41;5016052;28;20046;-63
2023/06/28 07:48:07;;;;;;;8.25;7.50;;;;;;;31.61;43.85;99381.66;5015131;28;20057;-63
2023/06/28 07:50:33;;;;;;;9.35;7.50;;;;;;;31.46;43.73;99379.28;5016033;28;20323;-64
2023/06/28 07:52:58;;;;;;;8.63;7.55;;;;;;;31.38;43.04;99375.34;5015808;28;20061;-64
2023/06/28 07:55:24;;;;;;;9.10;7.45;;;;;;;31.73;41.84;99372.94;5015905;28;20034;-63
2023/06/28 07:57:49;;;;;;;8.32;7.30;;;;;;;31.65;42.01;99376.38;5016576;28;20036;-64
2023/06/28 08:00:15;;;;;;;8.45;7.57;;;;;;;31.89;41.32;99365.16;5015278;28;20029;-62
2023/06/28 08:02:41;;;;;;;9.05;7.82;;;;;;;32.19;40.18;99372.59;5016026;28;20049;-64
2023/06/28 08:05:07;;;;;;;9.43;7.65;;;;;;;32.31;41.25;99364.66;5016555;28;20029;-64
2023/06/28 08:07:34;;;;;;;8.70;7.80;;;;;;;32.07;41.13;99364.97;5016766;28;20041;-64
2023/06/28 08:09:59;;;;;;;9.60;7.65;;;;;;;31.71;40.37;99359.56;5016266;28;20037;-63
2023/06/28 08:12:24;;;;;;;8.32;7.53;;;;;;;32.11;42.48;99347.91;5015633;28;20330;-64
2023/06/28 08:14:50;;;;;;;8.57;7.78;;;;;;;32.29;40.61;99355.94;5015133;28;20100;-63
2023/06/28 08:17:15;;;;;;;10.00;9.00;;;;;;;32.40;41.41;99356.47;5015270;28;20037;-64
2023/06/28 08:19:41;;;;;;;8.80;8.00;;;;;;;32.58;41.69;99352.69;5016143;28;20114;-64
2023/06/28 08:22:06;;;;;;;8.98;8.13;;;;;;;32.75;39.94;99362.91;5016777;28;20239;-64
2023/06/28 08:24:31;;;;;;;8.80;8.00;;;;;;;32.84;39.57;99350.06;5015380;28;20269;-64
2023/06/28 08:26:57;;;;;;;8.70;7.90;;;;;;;32.83;41.24;99356.66;5015500;28;20069;-65
2023/06/28 08:29:22;;;;;;;7.95;7.22;;;;;;;32.58;39.42;99349.94;5015691;28;20105;-64
2023/06/28 08:31:49;;;;;;;9.00;8.05;;;;;;;32.73;39.08;99353.38;5016583;28;20038;-63
2023/06/28 08:34:16;;;;;;;7.57;6.88;;;;;;;33.00;38.77;99347.66;5015887;28;20083;-65
2023/06/28 08:36:41;;;;;;;8.50;7.63;;;;;;;33.12;37.97;99344.28;5015790;28;20050;-64
2023/06/28 08:39:07;;;;;;;9.00;8.10;;;;;;;33.18;39.30;99337.53;5015200;28;20177;-64
2023/06/28 08:41:34;;;;;;;8.45;7.65;;;;;;;33.27;38.38;99341.88;5015029;28;20116;-64
2023/06/28 08:44:01;;;;;;;8.70;7.80;;;;;;;33.11;38.37;99327.03;5015640;28;20327;-62
2023/06/28 08:46:29;;;;;;;8.85;7.95;;;;;;;33.00;37.85;99323.78;5015437;28;20053;-62
2023/06/28 08:48:55;;;;;;;8.23;7.35;;;;;;;32.97;36.56;99329.09;5015379;28;20046;-65
2023/06/28 08:51:21;;;;;;;9.27;7.97;;;;;;;33.07;35.49;99325.25;5016597;28;20044;-64
2023/06/28 08:53:48;;;;;;;8.25;7.47;;;;;;;33.04;35.25;99318.47;5014623;28;20030;-62
2023/06/28 08:56:13;;;;;;;7.30;6.70;;;;;;;33.13;35.12;99313.00;5015980;28;20339;-64
2023/06/28 08:58:41;;;;;;;8.27;7.47;;;;;;;32.94;35.97;99303.13;5015205;28;20398;-63
2023/06/28 09:01:08;;;;;;;8.50;7.47;;;;;;;32.92;37.15;99312.81;5014309;28;20080;-64
2023/06/28 09:03:39;;;;;;;8.75;7.13;;;;;;;33.08;35.34;99304.91;5014268;28;20038;-61
2023/06/28 09:06:05;;;;;;;7.80;7.10;;;;;;;33.06;35.61;99307.19;5017184;28;20060;-61
2023/06/28 09:08:31;;;;;;;8.25;7.45;;;;;;;32.96;34.18;99302.81;5016879;28;20339;-61
2023/06/28 09:10:59;;;;;;;7.07;6.38;;;;;;;33.17;32.93;99306.53;5015449;28;20042;-64
2023/06/28 09:13:27;;;;;;;7.90;7.07;;;;;;;33.31;34.71;99299.03;5011554;28;20038;-64
2023/06/28 09:15:53;;;;;;;9.13;6.65;;;;;;;33.40;35.53;99293.53;5016691;28;20042;-63
2023/06/28 09:18:19;;;;;;;7.80;6.85;;;;;;;33.45;34.51;99285.13;5016000;28;20029;-63
2023/06/28 09:20:50;;;;;;;7.18;6.47;;;;;;;33.51;33.09;99294.00;5015776;28;20073;-61
2023/06/28 09:23:26;;;;;;;7.53;6.85;;;;;;;33.48;32.48;99295.47;5015835;28;20034;-63
2023/06/28 09:25:52;;;;;;;6.95;6.32;;;;;;;33.22;34.04;99292.66;5014918;28;20038;-62
2023/06/28 09:28:19;;;;;;;8.48;7.65;;;;;;;33.13;34.79;99293.78;5014944;28;20026;-62
2023/06/28 09:30:50;;;;;;;8.00;7.30;;;;;;;32.84;34.57;99294.41;5015772;28;20236;-62
2023/06/28 09:33:18;;;;;;;6.70;6.00;;;;;;;32.69;32.81;99298.38;5015327;28;20048;-64
2023/06/28 09:35:44;;;;;;;7.43;6.72;;;;;;;32.62;34.71;99298.84;5014167;28;20052;-65
2023/06/28 09:38:10;;;;;;;8.13;7.43;;;;;;;32.54;35.75;99294.16;5015644;28;20057;-64
2023/06/28 09:40:36;;;;;;;8.07;6.53;;;;;;;32.56;35.18;99291.09;5015463;28;20088;-64
2023/06/28 09:43:02;;;;;;;7.20;6.50;;;;;;;32.37;33.83;99283.94;5016932;28;20076;-63
2023/06/28 09:45:28;;;;;;;7.38;6.68;;;;;;;32.30;36.18;99280.03;5015750;28;20045;-62
2023/06/28 09:47:58;;;;;;;7.13;6.43;;;;;;;32.20;35.96;99283.00;5015304;28;20045;-61
2023/06/28 09:50:43;;;;;;;7.43;6.72;;;;;;;32.25;36.43;99283.72;5017477;28;20026;-63
2023/06/28 09:53:15;;;;;;;10.45;7.07;;;;;;;32.33;35.63;99280.22;5018722;28;20026;-64
2023/06/28 09:55:43;;;;;;;7.13;6.47;;;;;;;32.29;35.22;99270.22;5017921;28;20262;-63
2023/06/28 09:58:13;;;;;;;7.13;6.43;;;;;;;32.26;35.34;99270.84;5018826;28;20454;-63
2023/06/28 10:00:41;;;;;;;7.47;6.78;;;;;;;32.15;36.12;99270.25;5018532;28;20239;-62
2023/06/28 10:03:11;;;;;;;8.15;6.75;;;;;;;32.04;35.54;99269.72;5017980;28;20040;-63
2023/06/28 10:05:39;;;;;;;9.13;6.57;;;;;;;31.93;35.64;99265.66;5018218;28;20352;-63
2023/06/28 10:08:15;;;;;;;8.07;7.28;;;;;;;31.88;36.95;99264.97;5018896;28;20033;-64
2023/06/28 10:10:41;;;;;;;8.25;6.78;;;;;;;31.87;37.85;99275.13;5016989;28;20044;-63
2023/06/28 10:13:09;;;;;;;7.47;6.60;;;;;;;31.83;37.50;99267.84;5017550;28;20061;-63
2023/06/28 10:15:50;;;;;;;7.55;6.85;;;;;;;31.79;36.32;99262.19;5017796;28;20055;-64
2023/06/28 10:18:16;;;;;;;7.85;7.10;;;;;;;31.84;35.71;99248.38;5016620;28;20042;-63
2023/06/28 10:20:43;;;;;;;8.15;6.78;;;;;;;31.74;36.37;99246.72;5017071;28;20057;-64
2023/06/28 10:23:11;;;;;;;8.02;7.07;;;;;;;31.71;36.49;99241.06;5017746;28;20037;-63
2023/06/28 10:25:39;;;;;;;8.85;6.88;;;;;;;31.70;36.35;99247.66;5017095;28;20041;-64
2023/06/28 10:28:05;;;;;;;7.15;6.45;;;;;;;31.55;37.26;99242.53;5016517;28;20350;-63
2023/06/28 10:30:31;;;;;;;7.95;7.20;;;;;;;31.70;38.05;99245.72;5017174;28;20037;-64
2023/06/28 10:32:58;;;;;;;7.32;6.55;;;;;;;31.81;36.99;99242.72;5018009;28;20323;-64
2023/06/28 10:35:24;;;;;;;6.90;6.20;;;;;;;31.89;37.63;99234.53;5017774;28;20041;-64
2023/06/28 10:37:49;;;;;;;7.30;6.70;;;;;;;31.92;37.24;99227.63;5018182;28;20033;-64
2023/06/28 10:40:15;;;;;;;7.32;6.53;;;;;;;31.90;35.43;99229.88;5018576;28;20048;-63
2023/06/28 10:42:41;;;;;;;7.43;6.43;;;;;;;31.80;37.25;99224.69;5018541;28;20269;-64
2023/06/28 10:45:10;;;;;;;6.60;6.00;;;;;;;31.85;36.10;99232.75;5017096;28;20037;-63
2023/06/28 10:47:37;;;;;;;6.80;6.20;;;;;;;31.90;35.34;99227.13;5017679;28;20096;-61
2023/06/28 10:50:09;;;;;;;6.80;6.10;;;;;;;31.90;36.97;99224.41;5015559;28;20105;-62
2023/06/28 10:53:05;;;;;;;7.38;6.68;;;;;;;31.90;34.67;99222.47;5017605;28;20088;-62
2023/06/28 10:55:33;;;;;;;6.85;6.25;;;;;;;31.99;36.04;99220.56;5008909;28;20435;-61
2023/06/28 10:58:04;;;;;;;6.95;6.25;;;;;;;32.08;36.87;99215.13;5016041;28;20069;-61
2023/06/28 11:00:42;;;;;;;6.50;5.40;;;;;;;32.12;35.88;99218.03;5016052;28;20049;-64
2023/06/28 11:03:08;;;;;;;6.47;5.80;;;;;;;32.26;35.69;99211.38;5016117;28;20038;-63
2023/06/28 11:05:56;;;;;;;7.55;6.57;;;;;;;32.42;36.13;99210.94;5016604;28;20034;-62
2023/06/28 11:08:35;;;;;;;6.78;6.18;;;;;;;32.46;35.31;99209.97;5016538;28;20425;-62
2023/06/28 11:11:01;;;;;;;6.22;5.63;;;;;;;32.35;35.63;99208.66;5016649;28;20432;-62
2023/06/28 11:13:44;;;;;;;6.50;5.60;;;;;;;32.37;35.44;99200.94;5016449;28;20044;-61
2023/06/28 11:16:16;;;;;;;7.03;6.43;;;;;;;32.34;35.04;99201.56;5016619;28;20310;-62
2023/06/28 11:18:41;;;;;;;6.57;5.95;;;;;;;32.30;33.47;99203.34;5016666;28;20029;-61
2023/06/28 11:21:14;;;;;;;6.60;6.00;;;;;;;32.23;35.18;99194.72;5017074;28;20246;-61
2023/06/28 11:23:41;;;;;;;7.80;5.53;;;;;;;32.18;34.44;99195.66;5017167;28;20128;-62
2023/06/28 11:26:18;;;;;;;6.47;5.80;;;;;;;32.10;34.72;99198.38;5016885;28;20030;-62
2023/06/28 11:28:54;;;;;;;6.22;5.63;;;;;;;32.11;34.79;99200.81;5017052;28;20052;-61